createdAt,value
2018-05-25T00:01:26.718Z,90.60
2018-05-25T00:03:54.240Z,90.70
2018-05-25T00:06:21.757Z,90.60
2018-05-25T00:08:49.291Z,90.70
2018-05-25T00:11:16.792Z,90.70
2018-05-25T00:13:44.715Z,90.70
2018-05-25T00:16:12.217Z,90.70
2018-05-25T00:18:39.728Z,90.70
2018-05-25T00:21:07.347Z,90.60
2018-05-25T00:23:34.850Z,90.30
2018-05-25T00:26:02.377Z,89.70
2018-05-25T00:28:29.878Z,90.10
2018-05-25T00:30:57.426Z,90.20
2018-05-25T00:33:24.929Z,90.60
2018-05-25T00:35:52.473Z,91.00
2018-05-25T00:38:20.822Z,91.40
2018-05-25T00:40:48.761Z,92.00
2018-05-25T00:43:16.281Z,92.00
2018-05-25T00:45:43.811Z,92.10
2018-05-25T00:48:13.050Z,92.40
2018-05-25T00:50:40.588Z,92.40
2018-05-25T00:53:08.100Z,92.30
2018-05-25T00:55:39.254Z,92.10
2018-05-25T00:58:06.755Z,92.20
2018-05-25T01:00:34.285Z,92.10
2018-05-25T01:03:01.800Z,91.60
2018-05-25T01:05:29.340Z,91.60
2018-05-25T01:07:56.841Z,91.70
2018-05-25T01:10:24.381Z,91.80
2018-05-25T01:12:51.905Z,91.80
2018-05-25T01:15:19.536Z,92.00
2018-05-25T01:17:47.033Z,92.00
2018-05-25T01:20:14.560Z,92.10
2018-05-25T01:22:42.112Z,92.50
2018-05-25T01:25:09.645Z,92.40
2018-05-25T01:27:37.142Z,92.50
2018-05-25T01:30:04.677Z,92.40
2018-05-25T01:32:32.192Z,92.00
2018-05-25T01:35:00.116Z,91.90
2018-05-25T01:37:27.621Z,91.90
2018-05-25T01:39:55.156Z,91.60
2018-05-25T01:42:23.044Z,91.40
2018-05-25T01:44:50.618Z,91.40
2018-05-25T01:47:18.118Z,91.50
2018-05-25T01:49:45.646Z,91.80
2018-05-25T01:52:13.148Z,92.30
2018-05-25T01:54:40.674Z,92.30
2018-05-25T01:57:08.183Z,92.40
2018-05-25T01:59:35.688Z,92.30
2018-05-25T02:02:03.248Z,91.90
2018-05-25T02:04:30.856Z,91.30
2018-05-25T02:06:58.515Z,91.40
2018-05-25T02:09:26.018Z,92.10
2018-05-25T02:11:53.540Z,92.30
2018-05-25T02:14:21.050Z,92.30
2018-05-25T02:16:48.569Z,92.30
2018-05-25T02:19:16.061Z,92.20
2018-05-25T02:21:43.980Z,92.20
2018-05-25T02:24:11.490Z,92.20
2018-05-25T02:26:40.003Z,92.30
2018-05-25T02:29:07.500Z,92.10
2018-05-25T02:31:35.038Z,92.00
2018-05-25T02:34:02.553Z,91.80
2018-05-25T02:36:48.805Z,91.80
2018-05-25T02:39:16.312Z,91.80
2018-05-25T02:41:43.841Z,91.50
2018-05-25T02:44:11.743Z,91.40
2018-05-25T02:46:40.390Z,91.50
2018-05-25T02:49:07.917Z,91.70
2018-05-25T02:51:35.451Z,92.10
2018-05-25T02:54:03.905Z,92.60
2018-05-25T02:56:31.443Z,92.60
2018-05-25T02:58:58.945Z,92.70
2018-05-25T03:01:26.473Z,93.00
2018-05-25T03:03:53.997Z,92.90
2018-05-25T03:06:21.921Z,93.70
2018-05-25T03:08:49.437Z,93.70
2018-05-25T03:11:16.977Z,93.70
2018-05-25T03:13:44.978Z,93.20
2018-05-25T03:16:12.513Z,93.20
2018-05-25T03:18:40.088Z,93.30
2018-05-25T03:21:07.622Z,93.30
2018-05-25T03:23:35.130Z,93.10
2018-05-25T03:26:02.683Z,92.90
2018-05-25T03:28:30.301Z,92.80
2018-05-25T03:30:57.969Z,92.70
2018-05-25T03:33:25.497Z,92.70
2018-05-25T03:35:53.072Z,92.60
2018-05-25T03:38:20.587Z,92.60
2018-05-25T03:40:48.598Z,92.60
2018-05-25T03:43:16.126Z,92.60
2018-05-25T03:45:44.119Z,92.30
2018-05-25T03:48:11.781Z,92.30
2018-05-25T03:50:39.276Z,92.30
2018-05-25T03:53:06.899Z,92.30
2018-05-25T03:55:34.406Z,92.20
2018-05-25T03:58:02.330Z,92.10
2018-05-25T04:00:41.794Z,92.10
2018-05-25T04:03:10.574Z,92.00
2018-05-25T04:05:38.089Z,91.90
2018-05-25T04:08:07.022Z,92.00
2018-05-25T04:10:34.538Z,91.70
2018-05-25T04:13:02.069Z,91.80
2018-05-25T04:15:29.577Z,91.80
2018-05-25T04:17:57.121Z,91.70
2018-05-25T04:20:24.620Z,91.60
2018-05-25T04:22:52.168Z,91.70
2018-05-25T04:25:20.072Z,91.40
2018-05-25T04:27:47.641Z,91.70
2018-05-25T04:30:15.590Z,91.90
2018-05-25T04:32:43.121Z,92.40
2018-05-25T04:35:10.617Z,92.60
2018-05-25T04:37:38.149Z,92.60
2018-05-25T04:40:05.644Z,92.60
2018-05-25T04:42:33.177Z,92.70
2018-05-25T04:45:01.880Z,93.00
2018-05-25T04:47:29.412Z,93.10
2018-05-25T04:49:57.466Z,93.30
2018-05-25T04:52:25.031Z,93.20
2018-05-25T04:54:52.534Z,93.20
2018-05-25T04:57:20.072Z,93.00
2018-05-25T04:59:47.606Z,93.20
2018-05-25T05:02:15.280Z,93.10
2018-05-25T05:04:42.925Z,93.10
2018-05-25T05:07:10.585Z,93.10
2018-05-25T05:09:38.237Z,93.00
2018-05-25T05:12:05.747Z,92.80
2018-05-25T05:14:33.563Z,92.80
2018-05-25T05:17:01.070Z,92.80
2018-05-25T05:19:29.013Z,92.60
2018-05-25T05:21:56.741Z,92.60
2018-05-25T05:24:24.295Z,92.40
2018-05-25T05:26:51.800Z,92.10
2018-05-25T05:29:19.327Z,91.40
2018-05-25T05:31:46.840Z,91.60
2018-05-25T05:34:14.415Z,91.50
2018-05-25T05:36:41.932Z,91.10
2018-05-25T05:39:09.875Z,91.00
2018-05-25T05:41:37.382Z,91.00
2018-05-25T05:44:04.916Z,90.20
2018-05-25T05:46:32.818Z,89.90
2018-05-25T05:49:00.462Z,89.90
2018-05-25T05:51:30.767Z,89.90
2018-05-25T05:53:58.358Z,88.90
2018-05-25T05:56:25.861Z,88.70
2018-05-25T05:58:53.862Z,87.80
2018-05-25T06:01:21.530Z,87.80
2018-05-25T06:03:49.182Z,87.10
2018-05-25T06:06:16.681Z,85.30
2018-05-25T06:08:44.301Z,84.80
2018-05-25T06:11:11.810Z,83.00
2018-05-25T06:13:39.453Z,82.40
2018-05-25T06:16:06.960Z,80.60
2018-05-25T06:18:34.519Z,77.40
2018-05-25T06:21:02.041Z,76.50
2018-05-25T06:23:29.560Z,74.60
2018-05-25T06:25:57.081Z,72.10
2018-05-25T06:28:24.617Z,71.80
2018-05-25T06:30:52.619Z,69.10
2018-05-25T06:33:20.292Z,69.10
2018-05-25T06:35:47.809Z,70.30
2018-05-25T06:38:15.309Z,68.20
2018-05-25T06:40:43.705Z,65.70
2018-05-25T06:43:11.310Z,66.10
2018-05-25T06:45:38.837Z,66.30
2018-05-25T06:48:06.741Z,67.40
2018-05-25T06:50:34.502Z,67.40
2018-05-25T06:53:02.022Z,66.50
2018-05-25T06:55:30.026Z,62.70
2018-05-25T06:57:57.583Z,62.70
2018-05-25T07:00:25.492Z,61.80
2018-05-25T07:02:53.021Z,61.80
2018-05-25T07:05:21.601Z,61.50
2018-05-25T07:07:49.113Z,62.50
2018-05-25T07:10:16.677Z,61.00
2018-05-25T07:12:44.244Z,59.80
2018-05-25T07:15:11.785Z,61.70
2018-05-25T07:17:39.292Z,59.50
2018-05-25T07:20:06.825Z,61.80
2018-05-25T07:22:34.478Z,59.30
2018-05-25T07:25:02.037Z,58.30
2018-05-25T07:27:29.593Z,59.90
2018-05-25T07:29:59.314Z,58.60
2018-05-25T07:32:26.826Z,58.30
2018-05-25T07:34:54.364Z,56.60
2018-05-25T07:37:21.879Z,55.60
2018-05-25T07:39:49.422Z,56.80
2018-05-25T07:42:16.934Z,55.20
2018-05-25T07:44:44.467Z,54.30
2018-05-25T07:47:12.293Z,53.10
2018-05-25T07:49:39.824Z,51.60
2018-05-25T07:52:07.397Z,53.50
2018-05-25T07:54:35.468Z,51.50
2018-05-25T07:57:02.979Z,50.80
2018-05-25T07:59:30.516Z,52.20
2018-05-25T08:01:58.030Z,52.10
2018-05-25T08:04:25.698Z,51.70
2018-05-25T08:06:53.193Z,53.10
2018-05-25T08:09:20.929Z,51.20
2018-05-25T08:11:48.476Z,50.80
2018-05-25T08:14:16.124Z,51.80
2018-05-25T08:16:43.667Z,50.70
2018-05-25T08:19:11.229Z,50.90
2018-05-25T08:21:38.941Z,50.10
2018-05-25T08:24:06.554Z,49.70
2018-05-25T08:26:34.218Z,48.20
2018-05-25T08:29:01.726Z,50.00
2018-05-25T08:31:29.743Z,48.50
2018-05-25T08:33:57.245Z,48.50
2018-05-25T08:36:24.794Z,51.00
2018-05-25T08:38:52.293Z,50.40
2018-05-25T08:41:19.988Z,50.20
2018-05-25T08:43:48.046Z,50.20
2018-05-25T08:46:15.590Z,50.20
2018-05-25T08:48:43.107Z,51.40
2018-05-25T08:51:10.636Z,50.40
2018-05-25T08:53:38.261Z,50.80
2018-05-25T08:56:05.797Z,51.90
2018-05-25T08:58:33.315Z,51.80
2018-05-25T09:01:00.942Z,52.50
2018-05-25T09:03:28.449Z,50.90
2018-05-25T09:05:55.994Z,51.70
2018-05-25T09:08:23.498Z,51.80
2018-05-25T09:10:51.029Z,51.30
2018-05-25T09:13:18.529Z,51.40
2018-05-25T09:15:46.061Z,50.80
2018-05-25T09:18:13.557Z,50.50
2018-05-25T09:20:42.134Z,50.60
2018-05-25T09:23:09.749Z,50.90
2018-05-25T09:25:37.403Z,50.90
2018-05-25T09:28:05.061Z,50.60
2018-05-25T09:30:32.598Z,50.00
2018-05-25T09:33:00.492Z,52.10
2018-05-25T09:35:28.255Z,52.10
2018-05-25T09:37:55.783Z,50.60
2018-05-25T09:40:23.301Z,49.10
2018-05-25T09:42:50.836Z,50.00
2018-05-25T09:45:18.333Z,48.80
2018-05-25T09:47:46.252Z,51.70
2018-05-25T09:50:13.791Z,51.70
2018-05-25T09:52:48.085Z,49.70
2018-05-25T09:55:15.584Z,51.80
2018-05-25T09:57:54.081Z,50.70
2018-05-25T10:00:21.594Z,52.70
2018-05-25T10:02:49.129Z,53.90
2018-05-25T10:05:16.919Z,55.90
2018-05-25T10:07:44.610Z,55.50
2018-05-25T10:10:12.122Z,54.00
2018-05-25T10:12:40.053Z,52.50
2018-05-25T10:15:09.840Z,51.70
2018-05-25T10:17:37.498Z,51.90
2018-05-25T10:20:05.464Z,51.00
2018-05-25T10:22:32.997Z,52.20
2018-05-25T10:25:00.510Z,52.50
2018-05-25T10:27:28.037Z,54.90
2018-05-25T10:29:55.538Z,54.80
2018-05-25T10:32:23.085Z,54.00
2018-05-25T10:34:50.591Z,53.50
2018-05-25T10:37:18.123Z,52.70
2018-05-25T10:39:45.626Z,54.70
2018-05-25T10:42:13.471Z,55.50
2018-05-25T10:44:40.969Z,55.90
2018-05-25T10:47:08.497Z,55.50
2018-05-25T10:49:36.242Z,55.50
2018-05-25T10:52:03.781Z,58.10
2018-05-25T10:54:31.342Z,58.30
2018-05-25T10:56:58.880Z,59.20
2018-05-25T10:59:26.886Z,61.50
2018-05-25T11:01:54.538Z,61.00
2018-05-25T11:04:22.034Z,61.60
2018-05-25T11:06:49.553Z,62.30
2018-05-25T11:09:17.086Z,64.00
2018-05-25T11:11:44.768Z,63.10
2018-05-25T11:14:12.431Z,63.70
2018-05-25T11:16:40.084Z,64.30
2018-05-25T11:19:07.819Z,64.00
2018-05-25T11:21:35.397Z,64.10
2018-05-25T11:24:03.046Z,64.60
2018-05-25T11:26:30.714Z,65.30
2018-05-25T11:28:58.368Z,65.90
2018-05-25T11:31:26.033Z,65.50
2018-05-25T11:33:53.673Z,64.40
2018-05-25T11:36:21.177Z,64.70
2018-05-25T11:38:48.719Z,63.30
2018-05-25T11:41:16.262Z,62.80
2018-05-25T11:43:43.793Z,63.50
2018-05-25T11:46:11.319Z,63.50
2018-05-25T11:48:39.025Z,62.30
2018-05-25T11:51:06.687Z,62.50
2018-05-25T11:53:34.243Z,63.40
2018-05-25T11:56:01.742Z,64.30
2018-05-25T11:58:29.276Z,64.30
2018-05-25T12:00:56.782Z,64.20
2018-05-25T12:03:24.775Z,65.40
2018-05-25T12:05:52.287Z,65.50
2018-05-25T12:08:20.293Z,65.20
2018-05-25T12:10:47.805Z,65.30
2018-05-25T12:13:15.407Z,65.50
2018-05-25T12:15:42.915Z,66.10
2018-05-25T12:18:10.448Z,65.20
2018-05-25T12:20:39.737Z,64.70
2018-05-25T12:23:07.474Z,65.50
2018-05-25T12:25:34.978Z,65.70
2018-05-25T12:28:02.533Z,67.20
2018-05-25T12:30:30.034Z,67.20
2018-05-25T12:32:57.709Z,66.70
2018-05-25T12:35:25.261Z,67.20
2018-05-25T12:37:53.123Z,66.10
2018-05-25T12:40:20.690Z,66.00
2018-05-25T12:42:48.205Z,66.60
2018-05-25T12:45:16.289Z,67.30
2018-05-25T12:47:44.398Z,68.40
2018-05-25T12:50:12.905Z,68.20
2018-05-25T12:52:40.423Z,67.00
2018-05-25T12:55:07.948Z,67.40
2018-05-25T12:57:35.457Z,67.30
2018-05-25T13:00:03.390Z,66.80
2018-05-25T13:02:31.553Z,68.10
2018-05-25T13:04:59.308Z,68.00
2018-05-25T13:07:26.816Z,67.80
2018-05-25T13:09:55.522Z,67.80
2018-05-25T13:12:23.506Z,68.00
2018-05-25T13:14:51.044Z,68.00
2018-05-25T13:17:18.942Z,67.00
2018-05-25T13:19:46.497Z,67.70
2018-05-25T13:22:14.009Z,67.80
2018-05-25T13:24:41.961Z,67.70
2018-05-25T13:27:09.480Z,67.00
2018-05-25T13:29:37.005Z,67.00
2018-05-25T13:32:04.590Z,67.40
2018-05-25T13:34:32.146Z,68.30
2018-05-25T13:36:59.702Z,67.00
2018-05-25T13:39:27.243Z,67.30
2018-05-25T13:41:54.762Z,66.60
2018-05-25T13:44:22.464Z,67.00
2018-05-25T13:46:49.979Z,68.00
2018-05-25T13:49:17.526Z,67.60
2018-05-25T13:51:45.039Z,66.80
2018-05-25T13:54:13.254Z,67.30
2018-05-25T13:56:40.770Z,67.80
2018-05-25T13:59:08.430Z,66.80
2018-05-25T14:01:36.078Z,66.80
2018-05-25T14:04:03.811Z,67.20
2018-05-25T14:06:31.736Z,67.80
2018-05-25T14:08:59.265Z,67.00
2018-05-25T14:11:26.974Z,66.70
2018-05-25T14:13:54.593Z,66.70
2018-05-25T14:16:22.247Z,67.70
2018-05-25T14:18:49.769Z,67.70
2018-05-25T14:21:18.320Z,66.00
2018-05-25T14:23:47.693Z,66.00
2018-05-25T14:26:15.221Z,66.50
2018-05-25T14:28:42.735Z,66.80
2018-05-25T14:31:10.857Z,66.30
2018-05-25T14:33:38.369Z,66.90
2018-05-25T14:36:06.305Z,67.20
2018-05-25T14:38:33.807Z,67.10
2018-05-25T14:41:01.329Z,67.70
2018-05-25T14:43:28.850Z,68.50
2018-05-25T14:45:56.394Z,67.80
2018-05-25T14:48:23.903Z,67.80
2018-05-25T14:50:51.853Z,68.40
2018-05-25T14:53:19.373Z,68.40
2018-05-25T14:55:47.029Z,68.70
2018-05-25T14:58:14.529Z,68.40
2018-05-25T15:00:42.072Z,68.70
2018-05-25T15:03:10.810Z,68.50
2018-05-25T15:05:38.356Z,68.10
2018-05-25T15:08:06.262Z,67.20
2018-05-25T15:10:33.811Z,68.30
2018-05-25T15:13:01.465Z,68.30
2018-05-25T15:15:29.006Z,70.10
2018-05-25T15:17:56.576Z,71.80
2018-05-25T15:20:24.105Z,72.40
2018-05-25T15:22:51.997Z,73.90
2018-05-25T15:25:19.552Z,74.00
2018-05-25T15:27:47.201Z,74.80
2018-05-25T15:30:14.717Z,75.30
2018-05-25T15:32:42.910Z,76.60
2018-05-25T15:35:10.261Z,76.60
2018-05-25T15:37:38.181Z,77.60
2018-05-25T15:40:05.710Z,77.60
2018-05-25T15:42:33.245Z,78.00
2018-05-25T15:45:00.826Z,78.00
2018-05-25T15:47:28.362Z,77.60
2018-05-25T15:49:55.868Z,77.40
2018-05-25T15:52:23.500Z,77.50
2018-05-25T15:54:50.997Z,77.70
2018-05-25T15:57:18.542Z,77.60
2018-05-25T15:59:46.054Z,77.30
2018-05-25T16:02:13.631Z,77.30
2018-05-25T16:04:41.710Z,77.30
2018-05-25T16:07:09.253Z,77.30
2018-05-25T16:09:37.463Z,77.30
2018-05-25T16:12:05.068Z,77.60
2018-05-25T16:14:32.671Z,77.40
2018-05-25T16:17:00.202Z,76.90
2018-05-25T16:19:27.853Z,76.60
2018-05-25T16:21:55.392Z,75.60
2018-05-25T16:24:22.948Z,75.80
2018-05-25T16:26:50.611Z,75.60
2018-05-25T16:29:18.130Z,74.30
2018-05-25T16:31:46.061Z,74.90
2018-05-25T16:34:13.574Z,74.90
2018-05-25T16:36:42.269Z,75.80
2018-05-25T16:39:09.930Z,76.10
2018-05-25T16:41:37.469Z,76.60
2018-05-25T16:44:04.988Z,76.80
2018-05-25T16:46:32.556Z,76.60
2018-05-25T16:49:00.457Z,77.40
2018-05-25T16:51:27.981Z,77.20
2018-05-25T16:53:55.909Z,76.70
2018-05-25T16:56:23.526Z,77.30
2018-05-25T16:58:51.082Z,77.80
2018-05-25T17:01:19.884Z,78.30
2018-05-25T17:03:47.415Z,78.30
2018-05-25T17:06:15.041Z,78.70
2018-05-25T17:08:42.584Z,78.90
2018-05-25T17:11:10.095Z,79.10
2018-05-25T17:13:37.634Z,79.50
2018-05-25T17:16:05.529Z,79.10
2018-05-25T17:18:33.085Z,79.10
2018-05-25T17:21:01.617Z,78.70
2018-05-25T17:23:29.569Z,79.10
2018-05-25T17:25:57.499Z,78.50
2018-05-25T17:28:25.050Z,78.30
2018-05-25T17:30:52.562Z,78.40
2018-05-25T17:33:20.101Z,78.90
2018-05-25T17:35:47.620Z,79.40
2018-05-25T17:38:15.146Z,79.50
2018-05-25T17:40:42.644Z,79.90
2018-05-25T17:43:10.201Z,79.70
2018-05-25T17:45:37.729Z,79.70
2018-05-25T17:48:05.273Z,79.60
2018-05-25T17:50:33.581Z,79.70
2018-05-25T17:53:01.114Z,79.90
2018-05-25T17:55:28.768Z,80.00
2018-05-25T17:57:56.311Z,80.00
2018-05-25T18:00:24.209Z,79.80
2018-05-25T18:02:51.739Z,80.00
2018-05-25T18:05:19.934Z,80.00
2018-05-25T18:07:47.467Z,80.40
2018-05-25T18:10:14.982Z,80.60
2018-05-25T18:12:42.521Z,81.00
2018-05-25T18:15:10.032Z,81.10
2018-05-25T18:17:37.913Z,81.30
2018-05-25T18:20:05.573Z,81.50
2018-05-25T18:22:33.118Z,81.60
2018-05-25T18:25:00.694Z,81.70
2018-05-25T18:27:28.260Z,81.90
2018-05-25T18:29:55.814Z,81.70
2018-05-25T18:32:23.363Z,81.70
2018-05-25T18:34:50.919Z,81.60
2018-05-25T18:37:18.430Z,81.40
2018-05-25T18:39:46.438Z,81.30
2018-05-25T18:42:13.953Z,81.60
2018-05-25T18:44:41.882Z,81.60
2018-05-25T18:47:09.381Z,81.60
2018-05-25T18:49:37.668Z,82.40
2018-05-25T18:52:05.186Z,82.40
2018-05-25T18:54:33.637Z,82.80
2018-05-25T18:57:03.380Z,82.80
2018-05-25T18:59:30.925Z,82.80
2018-05-25T19:01:58.437Z,82.50
2018-05-25T19:04:27.053Z,82.50
2018-05-25T19:06:54.577Z,82.50
2018-05-25T19:09:22.131Z,82.50
2018-05-25T19:11:49.690Z,82.50
2018-05-25T19:14:17.347Z,82.60
2018-05-25T19:16:45.005Z,82.90
2018-05-25T19:19:12.539Z,83.00
2018-05-25T19:21:40.113Z,83.20
2018-05-25T19:24:07.645Z,83.20
2018-05-25T19:26:35.542Z,83.50
2018-05-25T19:29:03.077Z,83.50
2018-05-25T19:31:30.752Z,83.50
2018-05-25T19:33:58.281Z,83.70
2018-05-25T19:36:26.185Z,83.80
2018-05-25T19:38:53.730Z,83.80
2018-05-25T19:41:21.393Z,83.90
2018-05-25T19:43:49.033Z,83.90
2018-05-25T19:46:16.545Z,83.50
2018-05-25T19:48:44.729Z,83.80
2018-05-25T19:51:12.239Z,84.00
2018-05-25T19:53:39.774Z,84.00
2018-05-25T19:56:07.341Z,84.60
2018-05-25T19:58:36.572Z,84.70
2018-05-25T20:01:04.110Z,85.10
2018-05-25T20:03:31.652Z,85.10
2018-05-25T20:05:59.160Z,84.90
2018-05-25T20:08:26.699Z,84.90
2018-05-25T20:10:54.318Z,84.80
2018-05-25T20:13:22.101Z,84.90
2018-05-25T20:15:50.594Z,85.40
2018-05-25T20:18:18.129Z,85.60
2018-05-25T20:20:46.454Z,85.50
2018-05-25T20:23:14.377Z,85.40
2018-05-25T20:25:42.082Z,85.40
2018-05-25T20:28:09.582Z,85.70
2018-05-25T20:30:37.394Z,85.80
2018-05-25T20:33:04.902Z,85.90
2018-05-25T20:35:32.436Z,86.10
2018-05-25T20:37:59.944Z,86.10
2018-05-25T20:40:27.656Z,86.00
2018-05-25T20:42:55.154Z,85.90
2018-05-25T20:45:22.764Z,86.10
2018-05-25T20:47:50.275Z,86.30
2018-05-25T20:50:17.827Z,86.70
2018-05-25T20:52:45.337Z,86.80
2018-05-25T20:55:12.874Z,86.80
2018-05-25T20:57:40.438Z,86.80
2018-05-25T21:00:08.113Z,86.80
2018-05-25T21:02:35.629Z,86.90
2018-05-25T21:05:03.570Z,86.70
2018-05-25T21:07:31.078Z,86.70
2018-05-25T21:09:58.741Z,86.60
2018-05-25T21:12:26.275Z,86.70
2018-05-25T21:14:53.806Z,86.90
2018-05-25T21:17:21.318Z,86.90
2018-05-25T21:19:48.929Z,87.00
2018-05-25T21:22:16.433Z,87.10
2018-05-25T21:24:43.972Z,87.20
2018-05-25T21:27:11.477Z,87.10
2018-05-25T21:29:38.997Z,87.20
2018-05-25T21:32:06.514Z,87.20
2018-05-25T21:34:34.445Z,87.10
2018-05-25T21:37:02.638Z,87.10
2018-05-25T21:39:30.561Z,87.30
2018-05-25T21:41:58.089Z,87.30
2018-05-25T21:44:25.641Z,87.20
2018-05-25T21:46:53.166Z,87.30
2018-05-25T21:49:20.671Z,87.30
2018-05-25T21:51:48.333Z,87.20
2018-05-25T21:54:15.851Z,87.30
2018-05-25T21:56:43.369Z,87.40
2018-05-25T21:59:10.868Z,87.30
2018-05-25T22:01:38.393Z,87.60
2018-05-25T22:04:05.889Z,87.30
2018-05-25T22:06:33.454Z,87.20
2018-05-25T22:09:01.117Z,87.60
2018-05-25T22:11:28.764Z,87.60
2018-05-25T22:13:56.431Z,87.70
2018-05-25T22:16:24.019Z,87.80
2018-05-25T22:18:51.635Z,88.00
2018-05-25T22:21:19.189Z,87.80
2018-05-25T22:23:46.709Z,87.80
2018-05-25T22:26:14.309Z,87.80
2018-05-25T22:28:41.819Z,87.60
2018-05-25T22:31:09.347Z,87.70
2018-05-25T22:33:36.989Z,88.00
2018-05-25T22:36:04.533Z,87.80
2018-05-25T22:38:32.037Z,87.70
2018-05-25T22:40:59.665Z,87.80
2018-05-25T22:43:39.005Z,87.70
2018-05-25T22:46:18.365Z,87.60
2018-05-25T22:48:57.641Z,87.70
2018-05-25T22:51:36.908Z,87.80
2018-05-25T22:54:09.540Z,88.00
2018-05-25T22:56:37.071Z,88.20
2018-05-25T22:59:04.968Z,88.50
2018-05-25T23:01:32.498Z,88.60
2018-05-25T23:04:00.958Z,88.50
2018-05-25T23:06:28.481Z,88.30
2018-05-25T23:08:56.137Z,88.20
2018-05-25T23:11:24.265Z,88.40
2018-05-25T23:13:52.170Z,88.30
2018-05-25T23:16:19.701Z,88.30
2018-05-25T23:18:47.364Z,88.40
2018-05-25T23:21:15.030Z,88.20
2018-05-25T23:23:42.541Z,88.10
2018-05-25T23:26:10.086Z,88.30
2018-05-25T23:28:37.605Z,88.80
2018-05-25T23:31:05.370Z,89.10
2018-05-25T23:33:33.113Z,89.50
2018-05-25T23:36:00.622Z,89.40
2018-05-25T23:38:28.150Z,89.40
2018-05-25T23:40:55.686Z,89.40
2018-05-25T23:43:23.222Z,89.40
2018-05-25T23:45:51.700Z,89.20
2018-05-25T23:48:19.277Z,89.20
2018-05-25T23:50:46.797Z,88.90
2018-05-25T23:53:14.807Z,88.70
2018-05-25T23:55:42.458Z,88.70
2018-05-25T23:58:10.110Z,88.70
